Time;durP1;ratioP1;P1;durP2;ratioP2;P2;SDS_P1;SDS_P2;PMS_P1;PMS_P2;Temp;Humidity;BMP_temperature;BMP_pressure;BME280_temperature;BME280_humidity;BME280_pressure;Samples;Min_cycle;Max_cycle;Signal;HPM_P1;HPM_P2
2023/11/26 06:02:23;;;;;;;;;;;;;;;;;;5108238;23;20004;-48
2023/11/26 06:04:49;;;;;;;;;;;;;;;;;;4991156;28;19914;-44
2023/11/26 06:07:15;;;;;;;;;;;;;;;;;;4991526;28;20457;-43
2023/11/26 06:09:41;;;;;;;;;;;;;;;;;;4990667;28;20435;-47
2023/11/26 06:12:06;;;;;;;;;;;;;;;;;;4991176;28;19913;-47
2023/11/26 06:14:33;;;;;;;;;;;;;;;;;;4990672;28;20016;-44
2023/11/26 06:16:59;;;;;;;;;;;;;;;;;;4991071;28;19989;-46
2023/11/26 06:19:25;;;;;;;;;;;;;;;;;;4990712;28;19941;-44
2023/11/26 06:21:51;;;;;;;;;;;;;;;;;;4991251;28;20352;-47
2023/11/26 06:24:17;;;;;;;;;;;;;;;;;;4991150;28;19910;-45
2023/11/26 06:26:43;;;;;;;;;;;;;;;;;;4990933;28;19935;-44
2023/11/26 06:29:11;;;;;;;;;;;;;;;;;;4990295;28;20459;-45
2023/11/26 06:31:37;;;;;;;;;;;;;;;;;;4990776;28;19965;-43
2023/11/26 06:34:02;;;;;;;;;;;;;;;;;;4990734;28;19961;-44
2023/11/26 06:36:28;;;;;;;;;;;;;;;;;;4990899;28;19910;-48
2023/11/26 06:38:54;;;;;;;;;;;;;;;;;;4990375;28;19906;-45
2023/11/26 06:41:20;;;;;;;;;;;;;;;;;;4990703;28;20332;-46
2023/11/26 06:43:46;;;;;;;;;;;;;;;;;;4990684;28;19905;-44
2023/11/26 06:46:12;;;;;;;;;;;;;;;;;;4990471;28;19910;-44
2023/11/26 06:48:38;;;;;;;;;;;;;;;;;;4988582;28;20000;-45
2023/11/26 06:51:04;;;;;;;;;;;;;;;;;;4991871;28;19916;-47
2023/11/26 06:53:30;;;;;;;;;;;;;;;;;;4991886;28;19917;-44
2023/11/26 06:55:55;;;;;;;;;;;;;;;;;;4983328;28;19910;-44
2023/11/26 06:58:21;;;;;;;;;;;;;;;;;;4970461;28;20262;-45
2023/11/26 07:00:47;;;;;;;;;;;;;;;;;;4970560;28;19925;-45
2023/11/26 07:03:13;;;;;;;;;;;;;;;;;;4971153;28;20365;-47
2023/11/26 07:05:40;;;;;;;;;;;;;;;;;;4970594;28;19910;-47
2023/11/26 07:08:06;;;;;;;;;;;;;;;;;;4970691;28;19914;-46
2023/11/26 07:10:31;;;;;;;;;;;;;;;;;;4970978;28;20286;-44
2023/11/26 07:12:57;;;;;;;;;;;;;;;;;;4970500;28;19917;-45
2023/11/26 07:15:23;;;;;;;;;;;;;;;;;;4970702;28;19974;-44
2023/11/26 07:17:49;;;;;;;;;;;;;;;;;;4970583;28;20365;-47
2023/11/26 07:20:17;;;;;;;;;;;;;;;;;;4970876;28;20324;-45
2023/11/26 07:22:43;;;;;;;;;;;;;;;;;;4970592;28;19926;-45
2023/11/26 07:25:08;;;;;;;;;;;;;;;;;;4970609;28;20383;-44
2023/11/26 07:27:35;;;;;;;;;;;;;;;;;;4970117;28;19910;-44
2023/11/26 07:30:02;;;;;;;;;;;;;;;;;;4970545;28;20308;-48
2023/11/26 07:32:29;;;;;;;;;;;;;;;;;;4970259;28;19918;-46
2023/11/26 07:34:56;;;;;;;;;;;;;;;;;;4970772;28;19914;-45
2023/11/26 07:37:24;;;;;;;;;;;;;;;;;;4970544;28;19916;-44
2023/11/26 07:39:49;;;;;;;;;;;;;;;;;;4970103;28;19956;-46
2023/11/26 07:42:15;;;;;;;;;;;;;;;;;;4970648;28;19996;-45
2023/11/26 07:44:41;;;;;;;;;;;;;;;;;;4970498;28;19942;-44
2023/11/26 07:47:08;;;;;;;;;;;;;;;;;;4970407;28;19933;-45
2023/11/26 07:49:36;;;;;;;;;;;;;;;;;;4970266;28;19914;-43
2023/11/26 07:52:03;;;;;;;;;;;;;;;;;;4970182;28;19910;-43
2023/11/26 07:54:29;;;;;;;;;;;;;;;;;;4970244;28;19910;-44
2023/11/26 07:56:55;;;;;;;;;;;;;;;;;;4970119;28;21066;-45
2023/11/26 07:59:21;;;;;;;;;;;;;;;;;;4970179;28;19941;-43
2023/11/26 08:01:49;;;;;;;;;;;;;;;;;;4970393;28;19918;-44
2023/11/26 08:04:17;;;;;;;;;;;;;;;;;;4970550;28;19914;-44
2023/11/26 08:06:42;;;;;;;;;;;;;;;;;;4970106;28;19910;-47
2023/11/26 08:09:10;;;;;;;;;;;;;;;;;;4969792;28;19914;-43
2023/11/26 08:11:43;;;;;;;;;;;;;;;;;;4970289;28;19918;-47
2023/11/26 08:14:12;;;;;;;;;;;;;;;;;;4968691;28;20369;-45
2023/11/26 08:16:38;;;;;;;;;;;;;;;;;;4969960;28;19938;-44
2023/11/26 08:19:11;;;;;;;;;;;;;;;;;;4969837;28;19906;-46
2023/11/26 08:21:37;;;;;;;;;;;;;;;;;;4969939;28;19911;-44
2023/11/26 08:24:07;;;;;;;;;;;;;;;;;;4969943;28;19917;-43
2023/11/26 08:26:35;;;;;;;;;;;;;;;;;;4970123;28;19907;-44
2023/11/26 08:29:01;;;;;;;;;;;;;;;;;;4969936;28;19914;-47
2023/11/26 08:31:31;;;;;;;;;;;;;;;;;;4969938;28;20073;-45
2023/11/26 08:33:57;;;;;;;;;;;;;;;;;;4977992;28;19993;-47
2023/11/26 08:36:23;;;;;;;;;;;;;;;;;;4989082;28;20164;-48
2023/11/26 08:38:50;;;;;;;;;;;;;;;;;;4982530;28;19918;-49
2023/11/26 08:41:20;;;;;;;;;;;;;;;;;;4984508;28;19917;-50
2023/11/26 08:43:46;;;;;;;;;;;;;;;;;;4993687;28;19910;-46
2023/11/26 08:46:14;;;;;;;;;;;;;;;;;;4976210;28;19921;-45
2023/11/26 08:48:40;;;;;;;;;;;;;;;;;;4973967;28;19953;-44
2023/11/26 08:51:06;;;;;;;;;;;;;;;;;;4974062;28;19977;-46
2023/11/26 08:53:33;;;;;;;;;;;;;;;;;;4973995;28;19961;-46
2023/11/26 08:55:59;;;;;;;;;;;;;;;;;;4974229;28;19911;-44
2023/11/26 08:58:24;;;;;;;;;;;;;;;;;;4991095;28;19964;-45
2023/11/26 09:00:50;;;;;;;;;;;;;;;;;;4993695;28;20636;-46
2023/11/26 09:03:16;;;;;;;;;;;;;;;;;;4985854;28;19968;-46
2023/11/26 09:05:42;;;;;;;;;;;;;;;;;;4988024;28;20369;-47
2023/11/26 09:08:09;;;;;;;;;;;;;;;;;;4991653;28;19914;-46
2023/11/26 09:10:35;;;;;;;;;;;;;;;;;;4973956;28;19914;-47
2023/11/26 09:13:01;;;;;;;;;;;;;;;;;;4973675;28;19917;-47
2023/11/26 09:15:28;;;;;;;;;;;;;;;;;;4973674;28;20385;-49
2023/11/26 09:17:54;;;;;;;;;;;;;;;;;;4973493;28;19913;-47
2023/11/26 09:20:20;;;;;;;;;;;;;;;;;;4975191;28;19964;-46
2023/11/26 09:22:48;;;;;;;;;;;;;;;;;;4993021;28;20380;-46
2023/11/26 09:25:14;;;;;;;;;;;;;;;;;;4992941;28;19910;-47
2023/11/26 09:27:43;;;;;;;;;;;;;;;;;;4992531;28;19910;-46
2023/11/26 09:30:09;;;;;;;;;;;;;;;;;;4989256;28;19910;-46
2023/11/26 09:32:35;;;;;;;;;;;;;;;;;;4987749;28;19925;-47
2023/11/26 09:35:01;;;;;;;;;;;;;;;;;;4990910;28;19921;-48
2023/11/26 09:37:27;;;;;;;;;;;;;;;;;;4992899;28;20281;-44
2023/11/26 09:39:53;;;;;;;;;;;;;;;;;;4993127;28;19917;-45
2023/11/26 09:42:19;;;;;;;;;;;;;;;;;;4992737;28;19980;-47
2023/11/26 09:44:45;;;;;;;;;;;;;;;;;;4991863;28;19924;-47
2023/11/26 09:47:13;;;;;;;;;;;;;;;;;;4987482;28;19914;-47
2023/11/26 09:49:39;;;;;;;;;;;;;;;;;;4986560;28;19925;-47
2023/11/26 09:52:05;;;;;;;;;;;;;;;;;;4982619;28;19914;-45
2023/11/26 09:54:31;;;;;;;;;;;;;;;;;;4974002;28;19910;-46
2023/11/26 09:56:59;;;;;;;;;;;;;;;;;;4988714;28;19914;-49
2023/11/26 09:59:25;;;;;;;;;;;;;;;;;;4976056;28;19918;-46
2023/11/26 10:01:50;;;;;;;;;;;;;;;;;;4973649;28;19941;-46
2023/11/26 10:04:17;;;;;;;;;;;;;;;;;;4974147;28;20316;-45
2023/11/26 10:06:43;;;;;;;;;;;;;;;;;;4982171;28;19917;-45
2023/11/26 10:09:09;;;;;;;;;;;;;;;;;;4988599;28;19917;-49
2023/11/26 10:11:34;;;;;;;;;;;;;;;;;;4989502;28;19924;-46
2023/11/26 10:14:00;;;;;;;;;;;;;;;;;;4992953;28;19909;-46
2023/11/26 10:16:27;;;;;;;;;;;;;;;;;;4991509;28;19918;-48
2023/11/26 10:18:53;;;;;;;;;;;;;;;;;;4989949;28;20258;-46
2023/11/26 10:21:19;;;;;;;;;;;;;;;;;;4990225;28;19968;-45
2023/11/26 10:23:45;;;;;;;;;;;;;;;;;;4990975;28;19917;-50
2023/11/26 10:26:12;;;;;;;;;;;;;;;;;;4987330;28;19953;-46
2023/11/26 10:28:38;;;;;;;;;;;;;;;;;;4991641;28;19960;-48
2023/11/26 10:31:04;;;;;;;;;;;;;;;;;;4992080;28;19914;-48
2023/11/26 10:33:30;;;;;;;;;;;;;;;;;;4991862;28;20270;-45
2023/11/26 10:35:55;;;;;;;;;;;;;;;;;;4992298;28;19910;-49
2023/11/26 10:38:21;;;;;;;;;;;;;;;;;;4991754;28;19910;-49
2023/11/26 10:40:47;;;;;;;;;;;;;;;;;;4991689;28;19910;-47
2023/11/26 10:43:13;;;;;;;;;;;;;;;;;;4991601;28;19910;-46
2023/11/26 10:45:39;;;;;;;;;;;;;;;;;;4991692;28;19914;-45
2023/11/26 10:48:05;;;;;;;;;;;;;;;;;;4991390;28;20320;-49
2023/11/26 10:50:31;;;;;;;;;;;;;;;;;;4991693;28;20388;-46
2023/11/26 10:52:57;;;;;;;;;;;;;;;;;;4989366;28;19921;-50
2023/11/26 10:55:23;;;;;;;;;;;;;;;;;;4990641;28;19918;-49
2023/11/26 10:57:49;;;;;;;;;;;;;;;;;;4989717;28;19952;-45
2023/11/26 11:00:15;;;;;;;;;;;;;;;;;;4987194;28;20385;-47
2023/11/26 11:02:41;;;;;;;;;;;;;;;;;;4986489;28;19914;-49
2023/11/26 11:05:07;;;;;;;;;;;;;;;;;;4991305;28;20367;-45
2023/11/26 11:07:34;;;;;;;;;;;;;;;;;;4981552;28;19929;-49
2023/11/26 11:10:00;;;;;;;;;;;;;;;;;;4986657;28;20289;-45
2023/11/26 11:12:26;;;;;;;;;;;;;;;;;;4979311;28;19910;-46
2023/11/26 11:14:51;;;;;;;;;;;;;;;;;;4991986;28;19918;-48
2023/11/26 11:17:17;;;;;;;;;;;;;;;;;;4985499;28;19918;-50
2023/11/26 11:19:44;;;;;;;;;;;;;;;;;;4980297;28;19918;-45
2023/11/26 11:22:10;;;;;;;;;;;;;;;;;;4976799;28;19914;-46
2023/11/26 11:24:36;;;;;;;;;;;;;;;;;;4988206;28;19910;-46
2023/11/26 11:27:02;;;;;;;;;;;;;;;;;;4989544;28;20281;-48
2023/11/26 11:29:28;;;;;;;;;;;;;;;;;;4988168;28;19968;-49
2023/11/26 11:31:58;;;;;;;;;;;;;;;;;;4990288;28;19909;-47
2023/11/26 11:34:24;;;;;;;;;;;;;;;;;;4990395;28;20004;-46
2023/11/26 11:36:50;;;;;;;;;;;;;;;;;;4990284;28;19910;-45
2023/11/26 11:39:16;;;;;;;;;;;;;;;;;;4988118;28;19914;-45
2023/11/26 11:41:42;;;;;;;;;;;;;;;;;;4981642;28;19916;-45
2023/11/26 11:44:08;;;;;;;;;;;;;;;;;;4970312;28;20009;-49
2023/11/26 11:46:34;;;;;;;;;;;;;;;;;;4970250;28;19906;-46
2023/11/26 11:49:00;;;;;;;;;;;;;;;;;;4970074;28;19937;-45
2023/11/26 11:51:25;;;;;;;;;;;;;;;;;;4970429;28;19953;-45
2023/11/26 11:53:51;;;;;;;;;;;;;;;;;;4970675;28;20366;-45
2023/11/26 11:56:17;;;;;;;;;;;;;;;;;;4970014;28;19917;-45
2023/11/26 11:58:43;;;;;;;;;;;;;;;;;;4977801;28;20029;-45
2023/11/26 12:01:09;;;;;;;;;;;;;;;;;;4988422;28;19980;-47
2023/11/26 12:03:35;;;;;;;;;;;;;;;;;;4989452;28;19921;-45
2023/11/26 12:06:01;;;;;;;;;;;;;;;;;;4989564;28;19933;-46
2023/11/26 12:08:26;;;;;;;;;;;;;;;;;;4991430;28;19990;-47
2023/11/26 12:10:52;;;;;;;;;;;;;;;;;;4993482;28;19913;-45
2023/11/26 12:13:18;;;;;;;;;;;;;;;;;;4993048;28;19910;-47
2023/11/26 12:15:44;;;;;;;;;;;;;;;;;;4993118;28;19914;-46
2023/11/26 12:18:10;;;;;;;;;;;;;;;;;;4992818;28;20040;-46
2023/11/26 12:20:37;;;;;;;;;;;;;;;;;;4985195;28;19917;-45
2023/11/26 12:23:03;;;;;;;;;;;;;;;;;;4979785;28;20324;-45
2023/11/26 12:25:30;;;;;;;;;;;;;;;;;;4991066;28;19937;-49
2023/11/26 12:27:56;;;;;;;;;;;;;;;;;;4989961;28;19925;-46
2023/11/26 12:30:22;;;;;;;;;;;;;;;;;;4989791;28;19913;-48
2023/11/26 12:32:48;;;;;;;;;;;;;;;;;;4989452;28;19913;-47
2023/11/26 12:35:14;;;;;;;;;;;;;;;;;;4987988;28;19914;-49
2023/11/26 12:37:41;;;;;;;;;;;;;;;;;;4987285;28;20297;-46
2023/11/26 12:40:08;;;;;;;;;;;;;;;;;;4987878;28;19918;-46
2023/11/26 12:42:34;;;;;;;;;;;;;;;;;;4990380;28;19914;-48
2023/11/26 12:44:59;;;;;;;;;;;;;;;;;;4989151;28;20315;-48
2023/11/26 12:47:27;;;;;;;;;;;;;;;;;;4990970;28;19917;-49
2023/11/26 12:49:53;;;;;;;;;;;;;;;;;;4989210;28;20380;-46
2023/11/26 12:52:19;;;;;;;;;;;;;;;;;;4988430;28;19925;-46
2023/11/26 12:54:44;;;;;;;;;;;;;;;;;;4988706;28;19918;-48
2023/11/26 12:57:10;;;;;;;;;;;;;;;;;;4987635;28;20389;-50
2023/11/26 12:59:36;;;;;;;;;;;;;;;;;;4985227;28;19954;-47
2023/11/26 13:02:02;;;;;;;;;;;;;;;;;;4987665;28;19925;-47
2023/11/26 13:04:29;;;;;;;;;;;;;;;;;;4989600;28;19997;-47
2023/11/26 13:06:56;;;;;;;;;;;;;;;;;;4988881;28;19921;-46
2023/11/26 13:09:22;;;;;;;;;;;;;;;;;;4986303;28;19933;-49
2023/11/26 13:11:48;;;;;;;;;;;;;;;;;;4986906;28;19914;-49
2023/11/26 13:14:20;;;;;;;;;;;;;;;;;;4986341;28;19925;-49
2023/11/26 13:16:46;;;;;;;;;;;;;;;;;;4990702;28;19910;-46
2023/11/26 13:19:13;;;;;;;;;;;;;;;;;;4986404;28;20170;-47
2023/11/26 13:21:39;;;;;;;;;;;;;;;;;;4985777;28;19960;-49
2023/11/26 13:24:05;;;;;;;;;;;;;;;;;;4986693;28;19914;-46
2023/11/26 13:26:31;;;;;;;;;;;;;;;;;;4988625;28;19913;-49
2023/11/26 13:28:57;;;;;;;;;;;;;;;;;;4987175;28;19917;-44
2023/11/26 13:31:23;;;;;;;;;;;;;;;;;;4986973;28;20013;-48
2023/11/26 13:33:49;;;;;;;;;;;;;;;;;;4984773;28;20295;-49
2023/11/26 13:36:16;;;;;;;;;;;;;;;;;;4983922;28;20255;-49
2023/11/26 13:38:42;;;;;;;;;;;;;;;;;;4987294;28;19913;-45
2023/11/26 13:41:08;;;;;;;;;;;;;;;;;;4983262;28;20480;-44
2023/11/26 13:43:34;;;;;;;;;;;;;;;;;;4985971;28;19920;-45
2023/11/26 13:46:00;;;;;;;;;;;;;;;;;;4987662;28;19928;-45
2023/11/26 13:48:26;;;;;;;;;;;;;;;;;;4986148;28;19918;-49
2023/11/26 13:50:52;;;;;;;;;;;;;;;;;;4986150;28;20471;-48
2023/11/26 13:53:17;;;;;;;;;;;;;;;;;;4984348;28;19914;-49
2023/11/26 13:55:43;;;;;;;;;;;;;;;;;;4978946;28;19922;-48
2023/11/26 13:58:09;;;;;;;;;;;;;;;;;;4979589;28;19914;-45
2023/11/26 14:00:35;;;;;;;;;;;;;;;;;;4985009;28;19921;-46
2023/11/26 14:03:01;;;;;;;;;;;;;;;;;;4985953;28;20323;-47
2023/11/26 14:05:27;;;;;;;;;;;;;;;;;;4986058;28;19919;-49
2023/11/26 14:07:53;;;;;;;;;;;;;;;;;;4985852;28;19921;-48
2023/11/26 14:10:20;;;;;;;;;;;;;;;;;;4982948;28;19922;-48
2023/11/26 14:12:45;;;;;;;;;;;;;;;;;;4979520;28;19918;-46
2023/11/26 14:15:11;;;;;;;;;;;;;;;;;;4984994;28;19968;-46
2023/11/26 14:17:39;;;;;;;;;;;;;;;;;;4984730;28;19913;-49
2023/11/26 14:20:06;;;;;;;;;;;;;;;;;;4981212;28;19921;-46
2023/11/26 14:22:32;;;;;;;;;;;;;;;;;;4983863;28;19922;-49
2023/11/26 14:24:58;;;;;;;;;;;;;;;;;;4978953;28;19976;-46
2023/11/26 14:27:24;;;;;;;;;;;;;;;;;;4984858;28;19917;-46
2023/11/26 14:29:50;;;;;;;;;;;;;;;;;;4983409;28;19917;-49
2023/11/26 14:32:16;;;;;;;;;;;;;;;;;;4979922;28;19921;-48
2023/11/26 14:34:42;;;;;;;;;;;;;;;;;;4981372;28;19929;-46
2023/11/26 14:37:09;;;;;;;;;;;;;;;;;;4982726;28;19921;-48
2023/11/26 14:39:36;;;;;;;;;;;;;;;;;;4986950;28;19918;-46
2023/11/26 14:42:01;;;;;;;;;;;;;;;;;;4977705;28;19914;-49
2023/11/26 14:44:27;;;;;;;;;;;;;;;;;;4985736;28;19914;-47
2023/11/26 14:46:54;;;;;;;;;;;;;;;;;;4983115;28;20285;-48
2023/11/26 14:49:20;;;;;;;;;;;;;;;;;;4979264;28;19973;-46
2023/11/26 14:51:46;;;;;;;;;;;;;;;;;;4988005;28;19913;-46
2023/11/26 14:54:12;;;;;;;;;;;;;;;;;;4984465;28;20005;-46
2023/11/26 14:56:38;;;;;;;;;;;;;;;;;;4987890;28;20306;-46
2023/11/26 14:59:04;;;;;;;;;;;;;;;;;;4974131;28;19914;-50
2023/11/26 15:01:30;;;;;;;;;;;;;;;;;;4981537;28;19922;-46
2023/11/26 15:03:56;;;;;;;;;;;;;;;;;;4983387;28;20079;-48
2023/11/26 15:06:22;;;;;;;;;;;;;;;;;;4986696;28;19914;-45
2023/11/26 15:08:48;;;;;;;;;;;;;;;;;;4984223;28;20308;-49
2023/11/26 15:11:14;;;;;;;;;;;;;;;;;;4972659;28;19925;-48
2023/11/26 15:13:40;;;;;;;;;;;;;;;;;;4982928;28;19960;-48
2023/11/26 15:16:06;;;;;;;;;;;;;;;;;;4986720;28;20446;-46
2023/11/26 15:18:32;;;;;;;;;;;;;;;;;;4983237;28;19918;-46
2023/11/26 15:20:59;;;;;;;;;;;;;;;;;;4987608;28;19972;-48
2023/11/26 15:23:24;;;;;;;;;;;;;;;;;;4984235;28;19918;-48
2023/11/26 15:25:51;;;;;;;;;;;;;;;;;;4989570;28;19910;-47
2023/11/26 15:28:17;;;;;;;;;;;;;;;;;;4989003;28;19967;-45
2023/11/26 15:30:43;;;;;;;;;;;;;;;;;;4989090;28;20000;-49
2023/11/26 15:33:10;;;;;;;;;;;;;;;;;;4988517;28;19910;-49
2023/11/26 15:35:37;;;;;;;;;;;;;;;;;;4989266;28;19914;-48
2023/11/26 15:38:03;;;;;;;;;;;;;;;;;;4988184;28;20000;-46
2023/11/26 15:40:29;;;;;;;;;;;;;;;;;;4989315;28;20367;-47
2023/11/26 15:42:55;;;;;;;;;;;;;;;;;;4990088;28;20008;-46
2023/11/26 15:45:21;;;;;;;;;;;;;;;;;;4991271;28;19914;-47
2023/11/26 15:47:49;;;;;;;;;;;;;;;;;;4992533;28;19984;-47
2023/11/26 15:50:15;;;;;;;;;;;;;;;;;;4990659;28;20285;-47
2023/11/26 15:52:41;;;;;;;;;;;;;;;;;;4990307;28;19985;-47
2023/11/26 15:55:09;;;;;;;;;;;;;;;;;;4989539;28;19976;-47
2023/11/26 15:57:35;;;;;;;;;;;;;;;;;;4989881;28;19929;-48
2023/11/26 16:00:00;;;;;;;;;;;;;;;;;;4981236;28;19914;-49
2023/11/26 16:02:26;;;;;;;;;;;;;;;;;;4979744;28;19918;-47
2023/11/26 16:04:54;;;;;;;;;;;;;;;;;;4984778;28;19914;-48
2023/11/26 16:07:20;;;;;;;;;;;;;;;;;;4981626;28;19917;-49
2023/11/26 16:09:47;;;;;;;;;;;;;;;;;;4988470;28;20617;-46
2023/11/26 16:12:13;;;;;;;;;;;;;;;;;;4987973;28;19921;-46
2023/11/26 16:14:39;;;;;;;;;;;;;;;;;;4991794;28;19916;-46
2023/11/26 16:17:05;;;;;;;;;;;;;;;;;;4989538;28;19914;-46
2023/11/26 16:19:32;;;;;;;;;;;;;;;;;;4990687;28;19978;-46
2023/11/26 16:21:58;;;;;;;;;;;;;;;;;;4986898;28;19914;-45
2023/11/26 16:24:24;;;;;;;;;;;;;;;;;;4988062;28;19917;-46
2023/11/26 16:26:52;;;;;;;;;;;;;;;;;;4976020;28;20000;-45
2023/11/26 16:31:54;;;;;;;;;;;;;;;;;;5041530;23;20017;-46
2023/11/26 16:34:20;;;;;;;;;;;;;;;;;;4950157;29;20309;-50
2023/11/26 16:36:45;;;;;;;;;;;;;;;;;;4943779;29;19911;-45
2023/11/26 16:39:12;;;;;;;;;;;;;;;;;;4943842;28;19958;-49
2023/11/26 16:41:38;;;;;;;;;;;;;;;;;;4951484;29;19923;-46
2023/11/26 16:44:04;;;;;;;;;;;;;;;;;;4950241;28;19910;-49
2023/11/26 16:46:30;;;;;;;;;;;;;;;;;;4944223;29;19915;-48
2023/11/26 16:48:56;;;;;;;;;;;;;;;;;;4948048;28;19918;-47
2023/11/26 16:51:21;;;;;;;;;;;;;;;;;;4951383;28;20460;-47
2023/11/26 16:53:47;;;;;;;;;;;;;;;;;;4950784;28;19917;-48
2023/11/26 16:56:14;;;;;;;;;;;;;;;;;;4947912;29;19929;-48
2023/11/26 16:58:40;;;;;;;;;;;;;;;;;;4950862;28;20333;-46
2023/11/26 17:01:06;;;;;;;;;;;;;;;;;;4950037;28;20034;-46
2023/11/26 17:03:32;;;;;;;;;;;;;;;;;;4952010;29;19973;-48
2023/11/26 17:05:58;;;;;;;;;;;;;;;;;;4952061;28;19917;-47
2023/11/26 17:08:26;;;;;;;;;;;;;;;;;;4952002;29;19921;-46
2023/11/26 17:10:52;;;;;;;;;;;;;;;;;;4947381;28;20358;-46
2023/11/26 17:13:18;;;;;;;;;;;;;;;;;;4933950;29;20027;-49
2023/11/26 17:15:44;;;;;;;;;;;;;;;;;;4951630;29;19910;-48
2023/11/26 17:18:09;;;;;;;;;;;;;;;;;;4950777;29;19914;-47
2023/11/26 17:20:36;;;;;;;;;;;;;;;;;;4950903;28;19910;-49
2023/11/26 17:23:02;;;;;;;;;;;;;;;;;;4946836;28;19933;-47
2023/11/26 17:25:31;;;;;;;;;;;;;;;;;;4950236;29;20297;-45
2023/11/26 17:27:57;;;;;;;;;;;;;;;;;;4938417;29;19917;-48
2023/11/26 17:30:23;;;;;;;;;;;;;;;;;;4929200;29;19962;-48
2023/11/26 17:32:50;;;;;;;;;;;;;;;;;;4943417;28;19922;-49
2023/11/26 17:35:16;;;;;;;;;;;;;;;;;;4949148;29;19970;-45
2023/11/26 17:37:43;;;;;;;;;;;;;;;;;;4950113;29;19918;-48
2023/11/26 17:40:09;;;;;;;;;;;;;;;;;;4930070;29;19950;-45
2023/11/26 17:42:35;;;;;;;;;;;;;;;;;;4947600;28;19950;-45
2023/11/26 17:45:01;;;;;;;;;;;;;;;;;;4947859;28;20463;-46
2023/11/26 17:47:27;;;;;;;;;;;;;;;;;;4947437;29;19914;-46
2023/11/26 17:49:54;;;;;;;;;;;;;;;;;;4930907;29;20377;-46
2023/11/26 17:52:20;;;;;;;;;;;;;;;;;;4943313;28;19922;-47
2023/11/26 17:54:46;;;;;;;;;;;;;;;;;;4940362;29;20428;-49
2023/11/26 17:57:12;;;;;;;;;;;;;;;;;;4945474;29;20388;-44
2023/11/26 17:59:38;;;;;;;;;;;;;;;;;;4949374;29;19933;-46
2023/11/26 18:02:04;;;;;;;;;;;;;;;;;;4944524;28;20346;-46
2023/11/26 18:04:30;;;;;;;;;;;;;;;;;;4949392;29;19957;-48
2023/11/26 18:06:56;;;;;;;;;;;;;;;;;;4947858;28;20358;-50
2023/11/26 18:09:25;;;;;;;;;;;;;;;;;;4949358;29;20324;-48
2023/11/26 18:11:51;;;;;;;;;;;;;;;;;;4922548;28;19914;-47
2023/11/26 18:14:19;;;;;;;;;;;;;;;;;;4949421;28;19921;-49
2023/11/26 18:16:45;;;;;;;;;;;;;;;;;;4925874;29;19920;-50
2023/11/26 18:19:11;;;;;;;;;;;;;;;;;;4946906;28;19918;-47
2023/11/26 18:21:37;;;;;;;;;;;;;;;;;;4949786;29;19915;-47
2023/11/26 18:24:03;;;;;;;;;;;;;;;;;;4947077;29;20349;-49
2023/11/26 18:26:29;;;;;;;;;;;;;;;;;;4945739;28;19915;-49
2023/11/26 18:28:55;;;;;;;;;;;;;;;;;;4946775;29;19918;-47
2023/11/26 18:31:21;;;;;;;;;;;;;;;;;;4945726;28;19919;-47
2023/11/26 18:33:46;;;;;;;;;;;;;;;;;;4947242;29;19915;-48
2023/11/26 18:36:12;;;;;;;;;;;;;;;;;;4931397;29;19914;-49
2023/11/26 18:38:38;;;;;;;;;;;;;;;;;;4947814;29;19950;-49
2023/11/26 18:41:04;;;;;;;;;;;;;;;;;;4949456;29;20598;-49
2023/11/26 18:43:30;;;;;;;;;;;;;;;;;;4945956;28;19942;-47
2023/11/26 18:45:56;;;;;;;;;;;;;;;;;;4947774;29;19985;-47
2023/11/26 18:48:22;;;;;;;;;;;;;;;;;;4948411;29;19929;-48
2023/11/26 18:50:48;;;;;;;;;;;;;;;;;;4947766;29;20288;-48
2023/11/26 18:53:14;;;;;;;;;;;;;;;;;;4941851;28;19922;-49
2023/11/26 18:55:39;;;;;;;;;;;;;;;;;;4949034;29;20366;-50
2023/11/26 18:58:05;;;;;;;;;;;;;;;;;;4944428;29;19965;-48
2023/11/26 19:00:31;;;;;;;;;;;;;;;;;;4946054;28;20147;-49
2023/11/26 19:03:00;;;;;;;;;;;;;;;;;;4943720;28;20373;-47
2023/11/26 19:05:25;;;;;;;;;;;;;;;;;;4944853;28;19930;-49
2023/11/26 19:07:51;;;;;;;;;;;;;;;;;;4945109;29;20247;-47
2023/11/26 19:10:18;;;;;;;;;;;;;;;;;;4946651;29;20005;-50
2023/11/26 19:12:44;;;;;;;;;;;;;;;;;;4945403;28;19914;-49
2023/11/26 19:15:10;;;;;;;;;;;;;;;;;;4945697;29;19922;-50
2023/11/26 19:17:36;;;;;;;;;;;;;;;;;;4946598;28;19921;-50
2023/11/26 19:20:02;;;;;;;;;;;;;;;;;;4946583;29;20040;-46
2023/11/26 19:22:27;;;;;;;;;;;;;;;;;;4928201;28;19914;-47
2023/11/26 19:24:53;;;;;;;;;;;;;;;;;;4943490;28;19950;-47
2023/11/26 19:27:19;;;;;;;;;;;;;;;;;;4946845;29;19945;-49
2023/11/26 19:29:45;;;;;;;;;;;;;;;;;;4944229;29;19922;-48
2023/11/26 19:32:11;;;;;;;;;;;;;;;;;;4947138;29;19923;-46
2023/11/26 19:34:37;;;;;;;;;;;;;;;;;;4943096;28;19918;-48
2023/11/26 19:37:05;;;;;;;;;;;;;;;;;;4941454;28;19914;-47
2023/11/26 19:39:31;;;;;;;;;;;;;;;;;;4943422;29;19925;-49
2023/11/26 19:41:57;;;;;;;;;;;;;;;;;;4944590;28;20001;-48
2023/11/26 19:44:23;;;;;;;;;;;;;;;;;;4946384;29;20005;-46
2023/11/26 19:46:50;;;;;;;;;;;;;;;;;;4945300;29;19919;-48
2023/11/26 19:49:15;;;;;;;;;;;;;;;;;;4943027;29;19981;-49
2023/11/26 19:51:45;;;;;;;;;;;;;;;;;;4940808;28;19919;-49
2023/11/26 19:54:10;;;;;;;;;;;;;;;;;;4945224;28;20419;-45
2023/11/26 19:56:38;;;;;;;;;;;;;;;;;;4945092;29;19918;-48
2023/11/26 19:59:04;;;;;;;;;;;;;;;;;;4945154;28;20397;-46
2023/11/26 20:01:30;;;;;;;;;;;;;;;;;;4938988;28;19921;-46
2023/11/26 20:03:57;;;;;;;;;;;;;;;;;;4937271;29;20001;-45
2023/11/26 20:06:24;;;;;;;;;;;;;;;;;;4945926;29;19914;-46
2023/11/26 20:08:49;;;;;;;;;;;;;;;;;;4946055;29;20571;-45
2023/11/26 20:11:16;;;;;;;;;;;;;;;;;;4937421;29;19917;-47
2023/11/26 20:13:42;;;;;;;;;;;;;;;;;;4949878;29;19914;-48
2023/11/26 20:16:08;;;;;;;;;;;;;;;;;;4947868;28;20400;-46
2023/11/26 20:18:34;;;;;;;;;;;;;;;;;;4945792;29;19918;-49
2023/11/26 20:21:00;;;;;;;;;;;;;;;;;;4945759;28;20395;-45
2023/11/26 20:23:26;;;;;;;;;;;;;;;;;;4946252;29;19915;-48
2023/11/26 20:25:52;;;;;;;;;;;;;;;;;;4942651;28;19923;-47
2023/11/26 20:28:22;;;;;;;;;;;;;;;;;;4941000;28;19926;-46
2023/11/26 20:30:48;;;;;;;;;;;;;;;;;;4950370;28;20438;-45
2023/11/26 20:33:14;;;;;;;;;;;;;;;;;;4949730;28;20005;-48
2023/11/26 20:35:39;;;;;;;;;;;;;;;;;;4950177;29;19914;-47
2023/11/26 20:38:05;;;;;;;;;;;;;;;;;;4951023;29;19910;-47
2023/11/26 20:40:31;;;;;;;;;;;;;;;;;;4949732;29;20392;-45
2023/11/26 20:42:57;;;;;;;;;;;;;;;;;;4947872;28;19962;-47
2023/11/26 20:45:23;;;;;;;;;;;;;;;;;;4949816;28;19936;-46
2023/11/26 20:47:49;;;;;;;;;;;;;;;;;;4950425;29;19915;-45
2023/11/26 20:50:15;;;;;;;;;;;;;;;;;;4933475;29;20370;-45
2023/11/26 20:52:41;;;;;;;;;;;;;;;;;;4947198;28;19914;-45
2023/11/26 20:55:07;;;;;;;;;;;;;;;;;;4932886;29;19921;-45
2023/11/26 20:57:33;;;;;;;;;;;;;;;;;;4951369;29;20393;-46
2023/11/26 20:59:59;;;;;;;;;;;;;;;;;;4949620;29;19914;-45
2023/11/26 21:02:24;;;;;;;;;;;;;;;;;;4947629;28;19915;-45
2023/11/26 21:04:50;;;;;;;;;;;;;;;;;;4949958;29;19911;-47
2023/11/26 21:07:16;;;;;;;;;;;;;;;;;;4949966;29;19915;-46
2023/11/26 21:09:43;;;;;;;;;;;;;;;;;;4948996;28;19926;-45
2023/11/26 21:12:09;;;;;;;;;;;;;;;;;;4950657;29;20150;-45
2023/11/26 21:14:36;;;;;;;;;;;;;;;;;;4948107;29;20013;-45
2023/11/26 21:17:02;;;;;;;;;;;;;;;;;;4950032;29;19911;-46
2023/11/26 21:19:28;;;;;;;;;;;;;;;;;;4930960;28;19915;-45
2023/11/26 21:21:54;;;;;;;;;;;;;;;;;;4949244;29;19914;-45
2023/11/26 21:24:19;;;;;;;;;;;;;;;;;;4950737;29;19917;-46
2023/11/26 21:26:45;;;;;;;;;;;;;;;;;;4949657;29;20324;-46
2023/11/26 21:29:11;;;;;;;;;;;;;;;;;;4932618;29;19933;-45
2023/11/26 21:31:37;;;;;;;;;;;;;;;;;;4947046;28;20122;-46
2023/11/26 21:34:03;;;;;;;;;;;;;;;;;;4946763;28;19921;-45
2023/11/26 21:36:29;;;;;;;;;;;;;;;;;;4950281;29;19910;-45
2023/11/26 21:38:55;;;;;;;;;;;;;;;;;;4949394;29;20139;-47
2023/11/26 21:41:21;;;;;;;;;;;;;;;;;;4947134;28;19921;-49
2023/11/26 21:43:47;;;;;;;;;;;;;;;;;;4945949;28;19915;-45
2023/11/26 21:46:13;;;;;;;;;;;;;;;;;;4937546;29;19933;-46
2023/11/26 21:48:39;;;;;;;;;;;;;;;;;;4948742;29;20057;-44
2023/11/26 21:51:04;;;;;;;;;;;;;;;;;;4939523;29;20464;-44
2023/11/26 21:53:30;;;;;;;;;;;;;;;;;;4933145;29;19918;-46
2023/11/26 21:55:56;;;;;;;;;;;;;;;;;;4937355;28;20401;-46
2023/11/26 21:58:23;;;;;;;;;;;;;;;;;;4948090;28;19918;-47
2023/11/26 22:00:48;;;;;;;;;;;;;;;;;;4949797;29;20385;-44
2023/11/26 22:03:14;;;;;;;;;;;;;;;;;;4949747;29;19913;-46
2023/11/26 22:05:40;;;;;;;;;;;;;;;;;;4950451;29;20376;-46
2023/11/26 22:08:06;;;;;;;;;;;;;;;;;;4948911;28;19958;-48
2023/11/26 22:10:32;;;;;;;;;;;;;;;;;;4949644;29;19915;-48
2023/11/26 22:12:58;;;;;;;;;;;;;;;;;;4949260;29;19917;-45
2023/11/26 22:15:24;;;;;;;;;;;;;;;;;;4949122;28;19920;-45
2023/11/26 22:17:50;;;;;;;;;;;;;;;;;;4949080;28;19914;-48
2023/11/26 22:20:15;;;;;;;;;;;;;;;;;;4932111;29;20295;-44
2023/11/26 22:22:41;;;;;;;;;;;;;;;;;;4944823;28;19919;-45
2023/11/26 22:25:07;;;;;;;;;;;;;;;;;;4924134;28;19926;-45
2023/11/26 22:27:33;;;;;;;;;;;;;;;;;;4931233;29;20004;-45
2023/11/26 22:29:59;;;;;;;;;;;;;;;;;;4948851;29;19969;-46
2023/11/26 22:32:25;;;;;;;;;;;;;;;;;;4948948;29;20305;-46
2023/11/26 22:34:51;;;;;;;;;;;;;;;;;;4949017;29;19911;-44
2023/11/26 22:37:17;;;;;;;;;;;;;;;;;;4948557;28;20008;-45
2023/11/26 22:39:43;;;;;;;;;;;;;;;;;;4949510;29;20006;-47
2023/11/26 22:42:09;;;;;;;;;;;;;;;;;;4948712;29;19954;-46